Time;durP1;ratioP1;P1;durP2;ratioP2;P2;SDS_P1;SDS_P2;PMS_P1;PMS_P2;Temp;Humidity;BMP_temperature;BMP_pressure;BME280_temperature;BME280_humidity;BME280_pressure;Samples;Min_cycle;Max_cycle;Signal;HPM_P1;HPM_P2
2022/12/22 03:26:18;;;;;;;14.95;7.97;;;;;;;8.84;100.00;100162.63;5001306;28;20022;-74
2022/12/22 03:28:43;;;;;;;13.35;7.53;;;;;;;8.84;100.00;100160.03;4996304;28;20036;-74
2022/12/22 03:31:08;;;;;;;18.33;8.32;;;;;;;8.86;100.00;100162.66;4998485;28;20255;-74
2022/12/22 03:33:34;;;;;;;61.95;10.77;;;;;;;8.88;100.00;100161.00;4995368;28;20066;-74
2022/12/22 03:36:00;;;;;;;15.07;7.88;;;;;;;8.86;100.00;100154.88;4990889;28;20023;-74
2022/12/22 03:38:25;;;;;;;12.10;7.00;;;;;;;8.83;100.00;100150.50;4996129;28;20380;-73
2022/12/22 03:40:50;;;;;;;12.85;7.50;;;;;;;8.83;100.00;100153.09;4993555;28;20031;-74
2022/12/22 03:49:08;;;;;;;12.52;6.65;;;;;;;8.81;100.00;100140.94;4994496;28;20071;-74
2022/12/22 03:51:34;;;;;;;14.85;7.85;;;;;;;8.83;100.00;100141.81;4995549;28;20108;-74
2022/12/22 03:53:59;;;;;;;12.75;7.05;;;;;;;8.81;100.00;100136.59;4996540;28;20029;-74
2022/12/22 03:56:25;;;;;;;12.80;7.28;;;;;;;8.81;100.00;100143.53;4997165;28;20053;-65
2022/12/22 03:58:50;;;;;;;13.52;7.78;;;;;;;8.81;100.00;100139.19;4993246;28;20085;-66
2022/12/22 04:01:15;;;;;;;32.20;7.97;;;;;;;8.80;100.00;100139.19;4996735;28;20022;-65
2022/12/22 04:03:41;;;;;;;18.92;8.10;;;;;;;8.73;100.00;100130.38;4991332;28;20041;-66
2022/12/22 04:06:06;;;;;;;93.13;11.38;;;;;;;8.66;100.00;100129.41;4999593;28;20018;-65
2022/12/22 04:08:32;;;;;;;113.90;11.65;;;;;;;8.59;100.00;100124.94;4996077;28;20026;-65
2022/12/22 04:13:41;;;;;;;24.77;7.35;;;;;;;8.59;100.00;100126.63;4996720;28;20081;-65
2022/12/22 04:16:06;;;;;;;12.48;7.20;;;;;;;8.61;100.00;100124.97;5001214;28;20022;-65
2022/12/22 04:18:31;;;;;;;11.10;6.68;;;;;;;8.63;100.00;100123.25;4992231;28;20095;-65
2022/12/22 04:20:57;;;;;;;13.02;7.35;;;;;;;8.63;100.00;100121.56;5003390;28;20065;-65
2022/12/22 04:23:22;;;;;;;16.88;6.78;;;;;;;8.64;100.00;100125.88;4994442;28;20026;-65
2022/12/22 04:25:47;;;;;;;10.98;6.35;;;;;;;8.65;100.00;100121.59;4998892;28;20073;-65
2022/12/22 04:28:12;;;;;;;9.93;6.40;;;;;;;8.66;100.00;100123.31;4995448;28;20037;-73
2022/12/22 04:30:38;;;;;;;39.75;7.95;;;;;;;8.66;100.00;100128.50;4996055;28;20033;-74
2022/12/22 04:33:03;;;;;;;28.65;7.55;;;;;;;8.65;100.00;100135.44;4997381;28;20285;-73
2022/12/22 04:35:28;;;;;;;71.05;8.90;;;;;;;8.64;100.00;100140.59;5001790;28;20022;-74
2022/12/22 04:37:54;;;;;;;50.47;8.10;;;;;;;8.62;100.00;100137.09;4991983;28;20018;-74
2022/12/22 04:40:19;;;;;;;26.08;7.55;;;;;;;8.61;100.00;100135.34;5001683;28;20108;-74
2022/12/22 04:42:44;;;;;;;28.10;7.10;;;;;;;8.59;100.00;100142.22;4992519;28;20015;-74
2022/12/22 04:45:10;;;;;;;22.35;6.70;;;;;;;8.58;100.00;100149.13;5003306;28;20337;-74
2022/12/22 04:47:35;;;;;;;16.92;6.10;;;;;;;8.57;100.00;100147.38;5004237;28;20093;-74
2022/12/22 04:50:00;;;;;;;15.13;7.10;;;;;;;8.58;100.00;100150.88;4987966;28;20007;-74
2022/12/22 04:52:25;;;;;;;9.60;6.00;;;;;;;8.60;100.00;100146.56;4992361;28;20014;-74
2022/12/22 04:54:51;;;;;;;9.63;6.05;;;;;;;8.60;100.00;100144.84;4998882;28;20046;-74
2022/12/22 04:57:16;;;;;;;10.98;5.93;;;;;;;8.62;100.00;100143.16;4992407;28;20093;-74
2022/12/22 04:59:42;;;;;;;8.75;6.15;;;;;;;8.63;100.00;100139.72;4988471;28;20026;-74
2022/12/22 05:02:07;;;;;;;42.72;7.75;;;;;;;8.63;100.00;100141.44;4997496;28;20023;-74
2022/12/22 05:04:32;;;;;;;12.98;6.28;;;;;;;8.59;100.00;100139.63;4995018;28;20355;-74
2022/12/22 05:06:57;;;;;;;17.70;6.40;;;;;;;8.55;100.00;100130.03;5001609;28;20069;-74
2022/12/22 05:09:23;;;;;;;22.42;6.63;;;;;;;8.52;100.00;100126.53;4995889;28;20049;-74
2022/12/22 05:11:48;;;;;;;28.90;7.20;;;;;;;8.51;100.00;100129.09;4996032;28;20022;-74
2022/12/22 05:14:13;;;;;;;24.02;6.50;;;;;;;8.47;100.00;100128.16;4994777;28;20029;-74
2022/12/22 05:16:39;;;;;;;14.18;6.18;;;;;;;8.46;100.00;100129.00;4991087;28;20056;-74
2022/12/22 05:19:04;;;;;;;12.00;6.10;;;;;;;8.47;100.00;100133.34;5029237;28;20022;-74
2022/12/22 05:21:29;;;;;;;11.30;6.68;;;;;;;8.48;100.00;100135.09;4988676;28;20335;-74
2022/12/22 05:23:54;;;;;;;9.95;5.43;;;;;;;8.49;100.00;100139.44;4999032;28;20026;-74
2022/12/22 05:26:20;;;;;;;9.13;5.53;;;;;;;8.51;100.00;100145.53;4993892;28;20211;-73
2022/12/22 05:28:46;;;;;;;26.33;6.40;;;;;;;8.48;100.00;100150.66;4998346;28;20037;-73
2022/12/22 05:31:20;;;;;;;13.38;5.65;;;;;;;8.44;100.00;100148.84;4995293;28;20065;-74
2022/12/22 05:33:47;;;;;;;23.23;6.28;;;;;;;8.41;100.00;100150.47;5001412;28;20022;-74
2022/12/22 05:36:12;;;;;;;36.88;6.85;;;;;;;8.41;100.00;100160.88;4989639;28;20033;-74
2022/12/22 05:38:38;;;;;;;27.02;6.25;;;;;;;8.36;100.00;100160.78;4996087;28;20018;-73
2022/12/22 05:41:04;;;;;;;14.90;5.65;;;;;;;8.34;100.00;100162.44;4993336;28;20023;-74
2022/12/22 05:43:30;;;;;;;13.45;5.88;;;;;;;8.34;100.00;100162.44;5001926;28;20652;-74
2022/12/22 05:45:57;;;;;;;14.23;5.45;;;;;;;8.35;100.00;100161.59;5000665;28;20050;-73
2022/12/22 05:48:22;;;;;;;30.80;6.75;;;;;;;8.35;100.00;100164.19;5000608;28;20022;-73
2022/12/22 05:50:48;;;;;;;18.58;6.43;;;;;;;8.35;100.00;100169.38;4999818;28;20022;-73
2022/12/22 05:53:13;;;;;;;9.02;5.65;;;;;;;8.35;100.00;100174.59;4987247;28;20315;-73
2022/12/22 05:55:38;;;;;;;10.73;6.18;;;;;;;8.36;100.00;100173.75;5003560;28;20018;-73
2022/12/22 05:58:03;;;;;;;11.65;5.95;;;;;;;8.37;100.00;100180.66;5037209;28;20022;-73
2022/12/22 06:00:30;;;;;;;13.88;5.95;;;;;;;8.37;100.00;100185.88;5001371;28;20085;-73
2022/12/22 06:02:56;;;;;;;15.93;6.97;;;;;;;8.36;100.00;100195.38;4998350;28;20229;-73
2022/12/22 06:05:22;;;;;;;14.77;6.25;;;;;;;8.35;100.00;100200.53;5004538;28;20056;-73
2022/12/22 06:07:47;;;;;;;13.05;6.70;;;;;;;8.34;100.00;100204.88;4997974;28;20034;-72
2022/12/22 06:10:13;;;;;;;13.32;7.15;;;;;;;8.35;100.00;100210.91;4995259;28;20030;-73
2022/12/22 06:12:40;;;;;;;14.07;7.15;;;;;;;8.35;100.00;100214.38;5000168;28;20026;-73
2022/12/22 06:15:06;;;;;;;16.13;8.32;;;;;;;8.37;100.00;100222.19;5003355;28;20034;-73
2022/12/22 06:17:32;;;;;;;15.63;8.18;;;;;;;8.39;100.00;100222.28;5002965;28;20030;-73
2022/12/22 06:19:57;;;;;;;17.63;8.18;;;;;;;8.40;100.00;100224.00;5001388;28;20062;-73
2022/12/22 06:22:22;;;;;;;19.40;9.00;;;;;;;8.40;100.00;100224.91;4997377;28;20085;-74
2022/12/22 06:24:48;;;;;;;19.73;9.68;;;;;;;8.41;100.00;100220.56;5001657;28;20091;-73
2022/12/22 06:27:13;;;;;;;20.50;9.75;;;;;;;8.41;100.00;100237.00;5000732;28;20037;-73
2022/12/22 06:29:38;;;;;;;20.65;10.80;;;;;;;8.43;100.00;100232.75;5001093;28;20018;-73
2022/12/22 06:32:04;;;;;;;19.95;10.07;;;;;;;8.43;100.00;100239.63;4997414;28;20021;-73
2022/12/22 06:34:29;;;;;;;20.52;10.10;;;;;;;8.44;100.00;100251.78;5001914;28;20022;-73
2022/12/22 06:36:54;;;;;;;21.35;10.73;;;;;;;8.44;100.00;100250.09;4997121;28;20035;-73
2022/12/22 06:39:20;;;;;;;25.88;11.75;;;;;;;8.45;100.00;100256.19;5003865;28;20022;-74
2022/12/22 06:44:29;;;;;;;26.70;12.90;;;;;;;8.45;100.00;100269.16;5001257;28;20490;-73
2022/12/22 06:46:55;;;;;;;30.25;13.98;;;;;;;8.44;100.00;100264.75;4994115;28;20106;-73
2022/12/22 06:49:21;;;;;;;30.27;14.43;;;;;;;8.44;100.00;100263.06;5003803;28;20245;-73
2022/12/22 06:51:47;;;;;;;31.55;14.15;;;;;;;8.44;100.00;100276.06;4991906;28;20015;-73
2022/12/22 06:54:12;;;;;;;33.95;15.77;;;;;;;8.44;100.00;100278.66;5004100;28;20014;-73
2022/12/22 06:56:38;;;;;;;34.22;15.65;;;;;;;8.44;100.00;100282.94;5002098;28;20257;-73
2022/12/22 06:59:03;;;;;;;34.97;15.93;;;;;;;8.43;100.00;100292.47;4996774;28;20317;-73
2022/12/22 07:01:28;;;;;;;35.95;15.85;;;;;;;8.44;100.00;100290.72;4988082;28;20027;-73
2022/12/22 07:03:54;;;;;;;35.80;15.05;;;;;;;8.42;100.00;100293.28;4985107;28;20269;-73
2022/12/22 07:06:19;;;;;;;33.03;14.73;;;;;;;8.43;100.00;100305.44;4985917;28;20081;-73
2022/12/22 07:08:46;;;;;;;33.10;15.38;;;;;;;8.42;100.00;100308.88;4985887;28;20014;-73
2022/12/22 07:11:12;;;;;;;35.72;15.20;;;;;;;8.41;100.00;100314.03;4994651;28;20030;-73
2022/12/22 07:13:37;;;;;;;33.60;14.80;;;;;;;8.39;100.00;100320.91;4994984;28;20015;-73
2022/12/22 07:16:04;;;;;;;31.30;13.63;;;;;;;8.37;100.00;100333.81;4994820;28;20029;-73
2022/12/22 07:18:35;;;;;;;34.40;14.55;;;;;;;8.35;100.00;100340.72;4994371;28;20031;-74
2022/12/22 07:21:03;;;;;;;31.90;14.57;;;;;;;8.34;100.00;100341.53;4997043;28;20034;-73
2022/12/22 07:23:29;;;;;;;32.03;14.65;;;;;;;8.33;100.00;100334.63;5001511;28;20014;-73
2022/12/22 07:25:54;;;;;;;30.70;14.60;;;;;;;8.33;100.00;100322.50;4987202;28;20257;-73
2022/12/22 07:28:20;;;;;;;31.98;14.77;;;;;;;8.33;100.00;100322.50;4993507;28;20093;-73
2022/12/22 07:30:45;;;;;;;38.72;15.27;;;;;;;8.31;100.00;100325.91;4997387;28;20068;-73
2022/12/22 07:33:11;;;;;;;34.90;15.68;;;;;;;8.31;100.00;100326.81;5001236;28;20028;-73
2022/12/22 07:35:36;;;;;;;35.47;15.63;;;;;;;8.31;100.00;100325.91;4986116;28;20027;-73
2022/12/22 07:38:01;;;;;;;32.05;15.15;;;;;;;8.30;100.00;100337.16;4988554;28;20029;-74
2022/12/22 07:40:27;;;;;;;35.88;16.48;;;;;;;8.28;100.00;100334.47;5001596;28;20018;-73
2022/12/22 07:42:56;;;;;;;35.00;15.05;;;;;;;8.24;100.00;100353.44;5028044;28;20177;-73
2022/12/22 07:45:22;;;;;;;34.72;15.32;;;;;;;8.19;100.00;100350.69;4991465;28;20974;-73
2022/12/22 07:47:48;;;;;;;33.58;14.82;;;;;;;8.18;100.00;100359.34;4998942;28;20048;-73
2022/12/22 07:50:26;;;;;;;36.83;16.63;;;;;;;8.17;100.00;100361.91;4991038;28;20188;-73
2022/12/22 07:53:00;;;;;;;41.15;16.90;;;;;;;8.18;100.00;100374.94;4992827;28;20035;-74
2022/12/22 07:55:28;;;;;;;41.67;17.00;;;;;;;8.16;100.00;100367.94;5001242;28;20030;-73
2022/12/22 07:57:54;;;;;;;40.15;16.58;;;;;;;8.16;100.00;100379.19;4995270;28;20022;-73
2022/12/22 08:00:20;;;;;;;39.90;16.33;;;;;;;8.15;100.00;100390.41;4987564;28;20027;-73
2022/12/22 08:02:56;;;;;;;40.97;17.30;;;;;;;8.14;100.00;100404.22;4987665;28;20011;-74
2022/12/22 08:05:24;;;;;;;41.20;17.35;;;;;;;8.15;100.00;100406.00;4999119;28;20022;-73
2022/12/22 08:07:51;;;;;;;41.13;17.10;;;;;;;8.13;100.00;100415.44;4993031;28;20039;-65
2022/12/22 08:10:18;;;;;;;44.38;17.80;;;;;;;8.13;100.00;100431.00;4991357;28;20022;-65
2022/12/22 08:12:44;;;;;;;44.05;17.95;;;;;;;8.12;100.00;100436.16;4985824;28;20030;-65
2022/12/22 08:15:10;;;;;;;41.30;17.80;;;;;;;8.10;100.00;100438.72;4988635;28;20097;-65
2022/12/22 08:17:35;;;;;;;44.00;17.58;;;;;;;8.08;100.00;100435.22;4988687;28;20041;-66
2022/12/22 08:20:02;;;;;;;46.05;18.38;;;;;;;8.08;100.00;100435.22;4990923;28;20014;-65
2022/12/22 08:22:28;;;;;;;42.30;17.23;;;;;;;8.07;100.00;100438.63;4995625;28;20046;-65
2022/12/22 08:24:55;;;;;;;43.38;17.67;;;;;;;8.09;100.00;100434.34;4988816;28;20086;-65
2022/12/22 08:27:28;;;;;;;40.58;17.05;;;;;;;8.11;100.00;100436.97;4986052;28;20038;-65
2022/12/22 08:29:57;;;;;;;41.65;17.80;;;;;;;8.11;100.00;100437.88;4986361;28;20351;-65
2022/12/22 08:32:23;;;;;;;41.13;16.85;;;;;;;8.12;100.00;100442.22;4992445;28;20030;-65
2022/12/22 08:34:49;;;;;;;41.30;17.58;;;;;;;8.11;100.00;100445.66;4986441;28;20204;-65
2022/12/22 08:37:16;;;;;;;39.38;16.33;;;;;;;8.12;100.00;100462.09;4984653;28;20034;-73
2022/12/22 08:39:45;;;;;;;40.88;17.23;;;;;;;8.10;100.00;100467.25;4985976;28;20105;-73
2022/12/22 08:42:14;;;;;;;35.75;15.95;;;;;;;8.10;100.00;100480.22;4984975;28;20269;-74
2022/12/22 08:44:40;;;;;;;39.33;16.05;;;;;;;8.11;100.00;100496.66;4991132;28;20034;-72
2022/12/22 08:47:05;;;;;;;40.47;17.20;;;;;;;8.12;100.00;100501.91;4987083;28;20064;-74
2022/12/22 08:49:31;;;;;;;44.72;17.00;;;;;;;8.12;100.00;100504.50;4990673;28;20038;-74
2022/12/22 08:51:56;;;;;;;43.28;17.00;;;;;;;8.09;100.00;100501.81;4984330;28;20119;-74
2022/12/22 08:54:22;;;;;;;40.25;16.88;;;;;;;8.10;100.00;100526.06;4989399;28;20093;-73
2022/12/22 08:56:48;;;;;;;43.33;18.00;;;;;;;8.08;100.00;100535.50;4988149;28;20763;-74
2022/12/22 08:59:14;;;;;;;42.80;16.75;;;;;;;8.09;100.00;100550.25;4986419;28;20037;-74
2022/12/22 09:01:42;;;;;;;40.92;16.90;;;;;;;8.07;100.00;100537.22;4992758;28;20042;-74
2022/12/22 09:04:10;;;;;;;37.43;16.57;;;;;;;8.06;100.00;100530.28;4997416;28;20015;-73
2022/12/22 09:06:36;;;;;;;42.35;17.55;;;;;;;8.04;100.00;100531.97;4995752;28;20285;-66
2022/12/22 09:09:04;;;;;;;41.13;17.73;;;;;;;8.04;100.00;100547.53;4994294;28;20069;-65
2022/12/22 09:11:30;;;;;;;41.45;17.17;;;;;;;8.01;100.00;100540.53;4987129;28;20015;-65
2022/12/22 09:13:57;;;;;;;39.13;17.15;;;;;;;7.98;100.00;100547.31;4990234;28;20138;-64
2022/12/22 09:16:24;;;;;;;44.13;18.15;;;;;;;7.98;100.00;100549.91;4995691;28;20077;-64
2022/12/22 09:18:49;;;;;;;41.08;18.40;;;;;;;7.95;100.00;100550.75;4989624;28;20018;-64
2022/12/22 09:21:15;;;;;;;39.95;17.27;;;;;;;7.93;100.00;100543.72;4990323;28;20065;-64
2022/12/22 09:23:41;;;;;;;39.35;16.52;;;;;;;7.91;100.00;100550.59;4993926;28;20029;-64
2022/12/22 09:26:11;;;;;;;39.80;16.95;;;;;;;7.89;100.00;100542.75;5003951;28;20029;-64
2022/12/22 09:28:36;;;;;;;41.70;17.73;;;;;;;7.89;100.00;100550.53;4998868;28;20080;-64
2022/12/22 09:31:03;;;;;;;44.38;17.92;;;;;;;7.88;100.00;100559.16;5004183;28;20038;-64
2022/12/22 09:33:29;;;;;;;41.63;17.35;;;;;;;7.90;100.00;100569.59;4990417;28;20077;-64
2022/12/22 09:35:54;;;;;;;42.75;18.35;;;;;;;7.89;100.00;100573.88;5006137;28;20208;-64
2022/12/22 09:38:20;;;;;;;38.85;17.75;;;;;;;7.89;100.00;100573.88;5001403;28;20296;-64
2022/12/22 09:40:45;;;;;;;39.13;17.70;;;;;;;7.89;100.00;100565.22;5006653;28;20057;-64
2022/12/22 09:43:16;;;;;;;41.60;18.55;;;;;;;7.89;100.00;100573.88;5006039;28;20142;-64
2022/12/22 09:45:42;;;;;;;46.67;19.52;;;;;;;7.89;100.00;100573.00;4997077;28;20061;-64
2022/12/22 09:48:11;;;;;;;45.15;19.42;;;;;;;7.90;100.00;100574.78;4999320;28;20157;-71
2022/12/22 09:50:38;;;;;;;47.03;19.02;;;;;;;7.90;100.00;100588.63;4998744;28;20269;-72
2022/12/22 09:53:06;;;;;;;41.88;18.88;;;;;;;7.90;100.00;100577.38;4995225;28;20019;-72
2022/12/22 09:55:38;;;;;;;45.58;19.02;;;;;;;7.88;100.00;100587.72;5005622;28;20060;-71
2022/12/22 09:58:14;;;;;;;47.33;20.13;;;;;;;7.85;100.00;100582.44;5006613;28;20049;-71
2022/12/22 10:00:39;;;;;;;47.40;21.05;;;;;;;7.82;100.00;100585.81;4989882;28;20133;-71
2022/12/22 10:03:07;;;;;;;46.15;19.80;;;;;;;7.80;100.00;100590.03;4989597;28;20030;-71
2022/12/22 10:05:46;;;;;;;42.70;20.50;;;;;;;7.81;100.00;100601.31;5005818;28;20037;-71
2022/12/22 10:08:20;;;;;;;51.83;21.02;;;;;;;7.86;100.00;100611.84;5037994;28;20227;-71
2022/12/22 10:10:45;;;;;;;43.47;21.15;;;;;;;7.87;100.00;100605.81;5006997;28;20090;-71
2022/12/22 10:13:18;;;;;;;45.88;20.60;;;;;;;7.88;100.00;100607.56;4999120;28;20027;-71
2022/12/22 10:15:44;;;;;;;48.08;22.13;;;;;;;7.88;100.00;100613.66;5005656;28;20107;-71
2022/12/22 10:18:15;;;;;;;44.55;19.88;;;;;;;7.86;100.00;100607.50;5003135;28;20035;-71
2022/12/22 10:20:43;;;;;;;41.22;18.52;;;;;;;7.88;100.00;100610.16;4989198;28;20022;-71
2022/12/22 10:23:26;;;;;;;38.35;18.13;;;;;;;7.89;100.00;100609.31;5001610;28;20030;-71
2022/12/22 10:25:54;;;;;;;30.45;14.48;;;;;;;7.88;100.00;100604.97;5006578;28;20053;-72
2022/12/22 10:28:25;;;;;;;32.83;14.07;;;;;;;7.83;100.00;100610.91;4996580;28;20038;-72
2022/12/22 10:31:16;;;;;;;32.25;14.15;;;;;;;7.79;100.00;100614.25;5002011;28;20140;-72
2022/12/22 10:33:44;;;;;;;29.25;12.90;;;;;;;7.75;100.00;100617.56;4993394;28;20026;-71
2022/12/22 10:36:11;;;;;;;27.88;12.23;;;;;;;7.73;100.00;100619.22;4996870;28;20040;-71
2022/12/22 10:38:40;;;;;;;27.63;12.00;;;;;;;7.72;100.00;100626.94;4993227;28;20268;-71
2022/12/22 10:41:18;;;;;;;28.60;12.40;;;;;;;7.74;100.00;100627.91;4993292;28;20030;-71
2022/12/22 10:43:46;;;;;;;27.00;12.38;;;;;;;7.72;100.00;100617.47;4998901;28;20029;-72
2022/12/22 10:46:12;;;;;;;29.15;12.48;;;;;;;7.73;100.00;100624.41;5005660;28;20034;-71
2022/12/22 10:48:38;;;;;;;27.30;12.00;;;;;;;7.72;100.00;100616.56;4998144;28;20030;-71
2022/12/22 10:51:07;;;;;;;27.90;11.68;;;;;;;7.71;100.00;100620.91;5001971;28;20208;-71
2022/12/22 10:53:39;;;;;;;28.02;11.32;;;;;;;7.72;100.00;100626.94;4995541;28;20023;-71
2022/12/22 10:56:05;;;;;;;28.90;11.85;;;;;;;7.72;100.00;100625.25;4990276;28;20188;-71
2022/12/22 10:58:48;;;;;;;31.33;12.13;;;;;;;7.74;100.00;100628.75;5005403;28;20022;-71
2022/12/22 11:01:22;;;;;;;26.88;11.90;;;;;;;7.76;100.00;100634.00;5001297;28;20148;-71
2022/12/22 11:03:47;;;;;;;26.55;12.20;;;;;;;7.76;100.00;100629.72;4997199;28;20026;-72
2022/12/22 11:06:13;;;;;;;30.35;13.60;;;;;;;7.79;100.00;100632.41;4999384;28;20205;-71
2022/12/22 11:08:38;;;;;;;26.42;12.15;;;;;;;7.81;100.00;100635.91;4996015;28;20026;-71
2022/12/22 11:11:32;;;;;;;31.20;13.75;;;;;;;7.86;100.00;100636.03;5002854;28;20029;-71
2022/12/22 11:14:26;;;;;;;30.17;12.70;;;;;;;7.89;100.00;100646.50;4998947;28;20034;-71
2022/12/22 11:17:02;;;;;;;29.23;11.88;;;;;;;7.96;100.00;100657.97;5001205;28;20060;-64
2022/12/22 11:20:06;;;;;;;28.80;11.50;;;;;;;7.97;100.00;100651.97;4994593;28;20026;-64
2022/12/22 11:22:47;;;;;;;24.33;10.50;;;;;;;7.94;100.00;100646.69;4992396;28;20300;-64
2022/12/22 11:25:35;;;;;;;29.77;12.27;;;;;;;7.94;100.00;100644.09;4992047;28;20151;-64
2022/12/22 11:28:22;;;;;;;29.07;12.30;;;;;;;7.96;100.00;100642.41;5000716;28;20022;-64
2022/12/22 11:30:57;;;;;;;29.05;13.18;;;;;;;8.00;100.00;100652.06;5001343;28;20540;-64
2022/12/22 11:33:28;;;;;;;33.20;15.95;;;;;;;8.01;100.00;100651.22;4997447;28;20034;-63
2022/12/22 11:36:03;;;;;;;35.38;15.60;;;;;;;8.03;100.00;100657.34;5004548;28;20037;-70
2022/12/22 11:38:45;;;;;;;36.47;16.90;;;;;;;8.04;100.00;100666.88;4993887;28;20026;-72
2022/12/22 11:41:29;;;;;;;35.05;16.83;;;;;;;8.07;100.00;100661.78;4992223;28;20038;-71
2022/12/22 11:44:22;;;;;;;38.20;17.85;;;;;;;8.11;100.00;100662.75;4990910;28;20308;-72
2022/12/22 11:46:57;;;;;;;36.08;17.90;;;;;;;8.16;100.00;100662.06;4995903;28;20164;-76
2022/12/22 11:49:50;;;;;;;36.30;16.80;;;;;;;8.21;100.00;100664.78;4989198;28;20038;-76
2022/12/22 11:52:21;;;;;;;36.33;16.58;;;;;;;8.23;100.00;100668.31;4988750;28;20311;-77
2022/12/22 11:55:03;;;;;;;35.50;17.40;;;;;;;8.24;100.00;100671.78;4992462;28;20029;-76
2022/12/22 11:57:46;;;;;;;41.28;18.67;;;;;;;8.24;100.00;100661.41;5003334;28;20028;-77
2022/12/22 12:00:14;;;;;;;35.20;17.73;;;;;;;8.24;100.00;100664.91;5026351;28;20281;-76
2022/12/22 12:03:11;;;;;;;34.47;18.20;;;;;;;8.27;100.00;100667.59;5005409;28;20036;-77
2022/12/22 12:05:50;;;;;;;32.92;17.15;;;;;;;8.29;100.00;100659.84;5010119;28;20085;-76
2022/12/22 12:08:42;;;;;;;37.72;18.42;;;;;;;8.32;100.00;100652.16;5034196;28;20022;-77
2022/12/22 12:11:27;;;;;;;34.35;17.00;;;;;;;8.35;100.00;100652.22;5002023;28;20077;-76
2022/12/22 12:14:08;;;;;;;36.85;16.90;;;;;;;8.41;100.00;100643.75;5002994;28;20022;-76
2022/12/22 12:16:58;;;;;;;29.77;13.73;;;;;;;8.44;100.00;100642.13;5001444;28;20285;-78
2022/12/22 12:19:51;;;;;;;26.08;12.27;;;;;;;8.48;100.00;100636.19;5001325;28;20275;-77
2022/12/22 12:22:43;;;;;;;24.23;12.10;;;;;;;8.45;100.00;100624.84;5004601;28;20261;-77
2022/12/22 12:25:40;;;;;;;23.38;11.35;;;;;;;8.43;100.00;100624.78;5004436;28;20044;-77
2022/12/22 12:28:31;;;;;;;24.95;11.75;;;;;;;8.44;100.00;100623.06;5011855;28;20018;-72
2022/12/22 12:30:59;;;;;;;21.13;11.10;;;;;;;8.44;100.00;100616.16;5002457;28;20145;-72
2022/12/22 12:33:45;;;;;;;24.85;11.80;;;;;;;8.45;100.00;100615.34;5020406;28;20085;-64
2022/12/22 12:36:21;;;;;;;22.80;11.75;;;;;;;8.45;100.00;100609.28;4998975;28;20268;-64
2022/12/22 12:39:00;;;;;;;24.77;11.68;;;;;;;8.47;100.00;100612.78;5010888;28;20029;-63
2022/12/22 12:41:54;;;;;;;22.02;11.82;;;;;;;8.48;100.00;100606.75;5036237;28;20029;-63
2022/12/22 12:44:30;;;;;;;23.55;11.57;;;;;;;8.49;100.00;100612.00;5004256;28;20085;-64
2022/12/22 12:47:19;;;;;;;23.17;11.30;;;;;;;8.48;100.00;100605.03;5004156;28;20034;-64
2022/12/22 12:50:00;;;;;;;22.25;11.68;;;;;;;8.49;100.00;100613.72;5003432;28;20033;-63
2022/12/22 12:52:47;;;;;;;22.23;10.45;;;;;;;8.49;100.00;100599.03;5019974;28;20015;-64
2022/12/22 12:55:29;;;;;;;19.90;11.02;;;;;;;8.48;100.00;100610.22;4998103;28;20061;-64
2022/12/22 12:57:56;;;;;;;22.80;11.70;;;;;;;8.47;100.00;100608.50;5004187;28;20030;-70
2022/12/22 13:00:31;;;;;;;25.58;12.35;;;;;;;8.47;100.00;100602.41;5006036;28;20030;-71
2022/12/22 13:03:22;;;;;;;28.45;14.35;;;;;;;8.47;100.00;100600.72;5009182;28;20192;-71
2022/12/22 13:05:53;;;;;;;25.33;12.52;;;;;;;8.48;100.00;100607.63;5007014;28;20033;-70
2022/12/22 13:08:29;;;;;;;27.10;14.07;;;;;;;8.51;100.00;100612.91;5007941;28;20267;-73
2022/12/22 13:10:54;;;;;;;30.83;15.65;;;;;;;8.52;100.00;100604.28;5015947;28;20289;-73
2022/12/22 13:13:22;;;;;;;28.70;14.27;;;;;;;8.56;100.00;100601.78;5009179;28;20026;-73
2022/12/22 13:16:06;;;;;;;32.15;15.50;;;;;;;8.58;100.00;100590.59;5008107;28;20037;-72
2022/12/22 13:18:34;;;;;;;33.65;17.92;;;;;;;8.60;100.00;100601.03;5007959;28;20030;-72
2022/12/22 13:21:01;;;;;;;40.20;20.08;;;;;;;8.60;100.00;100601.03;5002920;28;20038;-72
2022/12/22 13:23:29;;;;;;;32.65;17.42;;;;;;;8.59;100.00;100600.16;4998682;28;20054;-72
2022/12/22 13:26:01;;;;;;;45.03;22.30;;;;;;;8.58;100.00;100597.53;5008115;28;20049;-72
2022/12/22 13:28:28;;;;;;;31.08;16.08;;;;;;;8.58;100.00;100597.53;5007473;28;20011;-72
2022/12/22 13:31:04;;;;;;;32.28;17.50;;;;;;;8.55;100.00;100598.31;5007790;28;20399;-72
2022/12/22 13:33:35;;;;;;;30.75;15.60;;;;;;;8.53;100.00;100611.25;5007802;28;20026;-72
2022/12/22 13:36:02;;;;;;;46.17;26.17;;;;;;;8.51;100.00;100609.44;5007504;28;20280;-73
2022/12/22 13:38:30;;;;;;;25.17;12.88;;;;;;;8.49;100.00;100608.53;4996356;28;20085;-73
2022/12/22 13:40:58;;;;;;;27.58;17.02;;;;;;;8.49;100.00;100599.03;5005492;28;20021;-72
2022/12/22 13:43:26;;;;;;;20.52;10.15;;;;;;;8.48;99.80;100588.59;5013683;28;20084;-72
2022/12/22 13:45:54;;;;;;;20.13;11.32;;;;;;;8.47;99.94;100581.63;5006194;28;20042;-72
2022/12/22 13:48:34;;;;;;;17.63;9.90;;;;;;;8.47;100.00;100579.03;5004690;28;20208;-72
2022/12/22 13:51:03;;;;;;;18.65;10.70;;;;;;;8.48;100.00;100575.59;5004105;28;20021;-72
2022/12/22 13:53:39;;;;;;;17.63;9.73;;;;;;;8.49;100.00;100577.38;5004881;28;20266;-72
2022/12/22 13:56:06;;;;;;;18.58;9.88;;;;;;;8.47;100.00;100574.75;5006824;28;20354;-72
2022/12/22 13:58:37;;;;;;;21.92;9.32;;;;;;;8.46;100.00;100565.19;5007511;28;20021;-72
2022/12/22 14:01:09;;;;;;;17.60;10.07;;;;;;;8.47;100.00;100564.34;5011362;28;20022;-72
2022/12/22 14:03:35;;;;;;;17.20;9.35;;;;;;;8.46;100.00;100564.31;5011985;28;20025;-72
2022/12/22 14:06:00;;;;;;;19.83;9.68;;;;;;;8.47;100.00;100559.16;5007344;28;20188;-72
2022/12/22 14:08:26;;;;;;;20.60;10.55;;;;;;;8.46;100.00;100557.41;4996184;28;20026;-72
2022/12/22 14:10:53;;;;;;;17.63;9.30;;;;;;;8.45;100.00;100559.94;5002546;28;20026;-72
2022/12/22 14:13:24;;;;;;;16.85;9.55;;;;;;;8.45;100.00;100560.81;4999005;28;20046;-72
2022/12/22 14:16:01;;;;;;;17.52;10.02;;;;;;;8.43;100.00;100554.69;5002832;28;20042;-72
2022/12/22 14:18:27;;;;;;;19.65;9.73;;;;;;;8.43;100.00;100557.28;4998402;28;20041;-72
2022/12/22 14:20:53;;;;;;;17.95;10.70;;;;;;;8.42;100.00;100552.91;5002414;28;20061;-72
2022/12/22 14:23:52;;;;;;;20.00;10.73;;;;;;;8.42;100.00;100547.72;5000859;28;20018;-72
2022/12/22 14:26:23;;;;;;;21.75;13.25;;;;;;;8.40;100.00;100540.72;5005260;28;20045;-65
2022/12/22 14:28:54;;;;;;;20.88;12.65;;;;;;;8.36;100.00;100531.97;5017004;28;20081;-65
2022/12/22 14:31:20;;;;;;;20.15;15.32;;;;;;;8.35;100.00;100527.63;4996912;28;20026;-65
2022/12/22 14:33:56;;;;;;;19.83;11.02;;;;;;;8.32;100.00;100530.13;5043158;28;20022;-65
2022/12/22 14:36:23;;;;;;;16.40;9.20;;;;;;;8.28;100.00;100520.50;5002966;28;20081;-65
2022/12/22 14:38:51;;;;;;;16.08;9.48;;;;;;;8.26;100.00;100524.78;5004306;28;20158;-65
2022/12/22 14:41:42;;;;;;;20.67;9.70;;;;;;;8.25;100.00;100528.22;5005548;28;20029;-66
2022/12/22 14:44:35;;;;;;;16.60;9.48;;;;;;;8.22;100.00;100521.22;5011488;28;20046;-65
2022/12/22 14:47:03;;;;;;;16.75;9.27;;;;;;;8.19;100.00;100510.75;4997563;28;20243;-65
2022/12/22 14:49:28;;;;;;;16.00;9.35;;;;;;;8.15;100.00;100509.78;5005790;28;20045;-66
2022/12/22 14:51:56;;;;;;;16.65;9.18;;;;;;;8.14;100.00;100507.13;4998137;28;20330;-65
2022/12/22 14:54:25;;;;;;;16.65;10.25;;;;;;;8.10;100.00;100503.59;5017112;28;20098;-65
2022/12/22 14:56:53;;;;;;;16.70;8.77;;;;;;;8.10;100.00;100505.31;5005596;28;20034;-65
2022/12/22 14:59:27;;;;;;;16.25;9.35;;;;;;;8.08;100.00;100509.56;5045432;28;20152;-66
2022/12/22 15:01:57;;;;;;;15.35;8.98;;;;;;;8.05;100.00;100510.34;5008607;28;20029;-66